sensor_id;sensor_type;location;lat;lon;timestamp;temperature;humidity
71096;DHT22;58753;49.440;11.126;2024-01-10T00:01:18;-5.74;63.01
71096;DHT22;58753;49.440;11.126;2024-01-10T00:03:44;-5.74;62.97
71096;DHT22;58753;49.440;11.126;2024-01-10T00:06:10;-5.76;62.89
71096;DHT22;58753;49.440;11.126;2024-01-10T00:08:35;-5.76;63.04
71096;DHT22;58753;49.440;11.126;2024-01-10T00:11:01;-5.74;62.94
71096;DHT22;58753;49.440;11.126;2024-01-10T00:13:26;-5.72;63.22
71096;DHT22;58753;49.440;11.126;2024-01-10T00:15:53;-5.67;63.04
71096;DHT22;58753;49.440;11.126;2024-01-10T00:18:18;-5.64;63.16
71096;DHT22;58753;49.440;11.126;2024-01-10T00:20:44;-5.58;63.02
71096;DHT22;58753;49.440;11.126;2024-01-10T00:23:09;-5.58;62.91
71096;DHT22;58753;49.440;11.126;2024-01-10T00:25:34;-5.52;62.96
71096;DHT22;58753;49.440;11.126;2024-01-10T00:28:00;-5.52;62.62
71096;DHT22;58753;49.440;11.126;2024-01-10T00:30:25;-5.50;62.60
71096;DHT22;58753;49.440;11.126;2024-01-10T00:32:51;-5.46;62.66
71096;DHT22;58753;49.440;11.126;2024-01-10T00:35:16;-5.44;62.78
71096;DHT22;58753;49.440;11.126;2024-01-10T00:37:41;-5.43;62.64
71096;DHT22;58753;49.440;11.126;2024-01-10T00:40:07;-5.39;62.54
71096;DHT22;58753;49.440;11.126;2024-01-10T00:42:33;-5.43;62.28
71096;DHT22;58753;49.440;11.126;2024-01-10T00:44:58;-5.42;62.47
71096;DHT22;58753;49.440;11.126;2024-01-10T00:47:24;-5.40;62.25
71096;DHT22;58753;49.440;11.126;2024-01-10T00:49:49;-5.39;62.27
71096;DHT22;58753;49.440;11.126;2024-01-10T00:52:15;-5.42;62.06
71096;DHT22;58753;49.440;11.126;2024-01-10T00:54:40;-5.39;62.19
71096;DHT22;58753;49.440;11.126;2024-01-10T00:57:06;-5.40;61.97
71096;DHT22;58753;49.440;11.126;2024-01-10T00:59:31;-5.39;61.98
71096;DHT22;58753;49.440;11.126;2024-01-10T01:01:56;-5.36;61.92
71096;DHT22;58753;49.440;11.126;2024-01-10T01:04:22;-5.36;61.92
71096;DHT22;58753;49.440;11.126;2024-01-10T01:06:47;-5.36;61.71
71096;DHT22;58753;49.440;11.126;2024-01-10T01:09:13;-5.36;61.73
71096;DHT22;58753;49.440;11.126;2024-01-10T01:11:41;-5.33;61.80
71096;DHT22;58753;49.440;11.126;2024-01-10T01:14:06;-5.38;61.62
71096;DHT22;58753;49.440;11.126;2024-01-10T01:16:32;-5.35;61.61
71096;DHT22;58753;49.440;11.126;2024-01-10T01:18:58;-5.32;61.98
71096;DHT22;58753;49.440;11.126;2024-01-10T01:21:23;-5.29;61.81
71096;DHT22;58753;49.440;11.126;2024-01-10T01:23:49;-5.29;61.69
71096;DHT22;58753;49.440;11.126;2024-01-10T01:26:14;-5.28;61.59
71096;DHT22;58753;49.440;11.126;2024-01-10T01:28:40;-5.28;61.73
71096;DHT22;58753;49.440;11.126;2024-01-10T01:31:05;-5.28;61.71
71096;DHT22;58753;49.440;11.126;2024-01-10T01:33:31;-5.25;61.57
71096;DHT22;58753;49.440;11.126;2024-01-10T01:35:56;-5.26;61.61
71096;DHT22;58753;49.440;11.126;2024-01-10T01:38:21;-5.29;61.61
71096;DHT22;58753;49.440;11.126;2024-01-10T01:40:47;-5.26;61.61
71096;DHT22;58753;49.440;11.126;2024-01-10T01:43:25;-5.22;61.80
71096;DHT22;58753;49.440;11.126;2024-01-10T01:45:55;-5.22;61.71
71096;DHT22;58753;49.440;11.126;2024-01-10T01:48:22;-5.19;61.67
71096;DHT22;58753;49.440;11.126;2024-01-10T01:50:50;-5.16;61.74
71096;DHT22;58753;49.440;11.126;2024-01-10T01:53:17;-5.16;61.56
71096;DHT22;58753;49.440;11.126;2024-01-10T01:55:44;-5.13;61.71
71096;DHT22;58753;49.440;11.126;2024-01-10T01:58:11;-5.11;61.71
71096;DHT22;58753;49.440;11.126;2024-01-10T02:00:38;-5.11;61.53
71096;DHT22;58753;49.440;11.126;2024-01-10T02:03:05;-5.12;61.53
71096;DHT22;58753;49.440;11.126;2024-01-10T02:05:31;-5.12;61.49
71096;DHT22;58753;49.440;11.126;2024-01-10T02:07:56;-5.12;61.53
71096;DHT22;58753;49.440;11.126;2024-01-10T02:10:22;-5.15;61.42
71096;DHT22;58753;49.440;11.126;2024-01-10T02:12:48;-5.15;61.51
71096;DHT22;58753;49.440;11.126;2024-01-10T02:15:14;-5.16;61.29
71096;DHT22;58753;49.440;11.126;2024-01-10T02:17:39;-5.19;61.27
71096;DHT22;58753;49.440;11.126;2024-01-10T02:20:12;-5.21;61.49
71096;DHT22;58753;49.440;11.126;2024-01-10T02:22:38;-5.19;61.53
71096;DHT22;58753;49.440;11.126;2024-01-10T02:25:06;-5.23;61.43
71096;DHT22;58753;49.440;11.126;2024-01-10T02:27:33;-5.28;61.63
71096;DHT22;58753;49.440;11.126;2024-01-10T02:30:02;-5.31;61.82
71096;DHT22;58753;49.440;11.126;2024-01-10T02:32:27;-5.32;61.82
71096;DHT22;58753;49.440;11.126;2024-01-10T02:34:53;-5.35;61.90
71096;DHT22;58753;49.440;11.126;2024-01-10T02:37:18;-5.36;62.27
71096;DHT22;58753;49.440;11.126;2024-01-10T02:39:43;-5.42;62.19
71096;DHT22;58753;49.440;11.126;2024-01-10T02:42:09;-5.42;62.50
71096;DHT22;58753;49.440;11.126;2024-01-10T02:44:34;-5.46;62.57
71096;DHT22;58753;49.440;11.126;2024-01-10T02:47:00;-5.50;62.67
71096;DHT22;58753;49.440;11.126;2024-01-10T02:49:25;-5.56;62.88
71096;DHT22;58753;49.440;11.126;2024-01-10T02:51:50;-5.59;62.90
71096;DHT22;58753;49.440;11.126;2024-01-10T02:54:16;-5.66;62.98
71096;DHT22;58753;49.440;11.126;2024-01-10T02:56:41;-5.73;63.32
71096;DHT22;58753;49.440;11.126;2024-01-10T02:59:07;-5.74;63.33
71096;DHT22;58753;49.440;11.126;2024-01-10T03:01:32;-5.77;63.51
71096;DHT22;58753;49.440;11.126;2024-01-10T03:03:57;-5.80;63.76
71096;DHT22;58753;49.440;11.126;2024-01-10T03:06:23;-5.80;64.11
71096;DHT22;58753;49.440;11.126;2024-01-10T03:08:48;-5.83;64.30
71096;DHT22;58753;49.440;11.126;2024-01-10T03:11:15;-5.82;64.60
71096;DHT22;58753;49.440;11.126;2024-01-10T03:13:40;-5.87;64.52
71096;DHT22;58753;49.440;11.126;2024-01-10T03:16:06;-5.90;64.61
71096;DHT22;58753;49.440;11.126;2024-01-10T03:18:31;-5.94;64.67
71096;DHT22;58753;49.440;11.126;2024-01-10T03:20:56;-5.97;64.74
71096;DHT22;58753;49.440;11.126;2024-01-10T03:23:22;-6.00;64.95
71096;DHT22;58753;49.440;11.126;2024-01-10T03:25:47;-6.04;65.05
71096;DHT22;58753;49.440;11.126;2024-01-10T03:28:17;-6.05;64.96
71096;DHT22;58753;49.440;11.126;2024-01-10T03:30:43;-6.13;65.07
71096;DHT22;58753;49.440;11.126;2024-01-10T03:33:08;-6.15;65.26
71096;DHT22;58753;49.440;11.126;2024-01-10T03:35:34;-6.17;65.63
71096;DHT22;58753;49.440;11.126;2024-01-10T03:37:59;-6.18;65.75
71096;DHT22;58753;49.440;11.126;2024-01-10T03:40:25;-6.14;66.20
71096;DHT22;58753;49.440;11.126;2024-01-10T03:42:50;-6.18;66.17
71096;DHT22;58753;49.440;11.126;2024-01-10T03:45:17;-6.18;66.16
71096;DHT22;58753;49.440;11.126;2024-01-10T03:47:44;-6.18;66.70
71096;DHT22;58753;49.440;11.126;2024-01-10T03:50:11;-6.18;66.81
71096;DHT22;58753;49.440;11.126;2024-01-10T03:52:37;-6.21;66.76
71096;DHT22;58753;49.440;11.126;2024-01-10T03:55:02;-6.24;66.80
71096;DHT22;58753;49.440;11.126;2024-01-10T03:57:28;-6.29;66.98
71096;DHT22;58753;49.440;11.126;2024-01-10T03:59:53;-6.37;66.95
71096;DHT22;58753;49.440;11.126;2024-01-10T04:02:18;-6.37;67.44
71096;DHT22;58753;49.440;11.126;2024-01-10T04:04:44;-6.37;67.58
71096;DHT22;58753;49.440;11.126;2024-01-10T04:07:09;-6.37;68.13
71096;DHT22;58753;49.440;11.126;2024-01-10T04:09:35;-6.35;68.08
71096;DHT22;58753;49.440;11.126;2024-01-10T04:12:00;-6.37;68.40
71096;DHT22;58753;49.440;11.126;2024-01-10T04:14:26;-6.35;68.71
71096;DHT22;58753;49.440;11.126;2024-01-10T04:16:53;-6.39;68.67
71096;DHT22;58753;49.440;11.126;2024-01-10T04:19:18;-6.46;68.36
71096;DHT22;58753;49.440;11.126;2024-01-10T04:21:44;-6.53;68.62
71096;DHT22;58753;49.440;11.126;2024-01-10T04:24:09;-6.58;69.06
71096;DHT22;58753;49.440;11.126;2024-01-10T04:26:35;-6.52;69.70
71096;DHT22;58753;49.440;11.126;2024-01-10T04:29:00;-6.53;69.44
71096;DHT22;58753;49.440;11.126;2024-01-10T04:31:26;-6.58;69.60
71096;DHT22;58753;49.440;11.126;2024-01-10T04:33:51;-6.58;70.33
71096;DHT22;58753;49.440;11.126;2024-01-10T04:36:17;-6.59;70.12
71096;DHT22;58753;49.440;11.126;2024-01-10T04:38:42;-6.65;70.42
71096;DHT22;58753;49.440;11.126;2024-01-10T04:41:07;-6.66;70.40
71096;DHT22;58753;49.440;11.126;2024-01-10T04:43:33;-6.72;70.56
71096;DHT22;58753;49.440;11.126;2024-01-10T04:45:58;-6.75;70.60
71096;DHT22;58753;49.440;11.126;2024-01-10T04:48:23;-6.80;70.58
71096;DHT22;58753;49.440;11.126;2024-01-10T04:50:49;-6.85;70.79
71096;DHT22;58753;49.440;11.126;2024-01-10T04:53:14;-6.88;71.00
71096;DHT22;58753;49.440;11.126;2024-01-10T04:55:40;-6.86;71.23
71096;DHT22;58753;49.440;11.126;2024-01-10T04:58:05;-6.82;71.84
71096;DHT22;58753;49.440;11.126;2024-01-10T05:00:30;-6.85;71.46
71096;DHT22;58753;49.440;11.126;2024-01-10T05:02:56;-6.90;71.54
71096;DHT22;58753;49.440;11.126;2024-01-10T05:05:21;-6.86;72.20
71096;DHT22;58753;49.440;11.126;2024-01-10T05:07:49;-6.90;71.84
71096;DHT22;58753;49.440;11.126;2024-01-10T05:10:15;-6.99;71.64
71096;DHT22;58753;49.440;11.126;2024-01-10T05:12:41;-7.04;71.80
71096;DHT22;58753;49.440;11.126;2024-01-10T05:15:07;-7.03;72.38
71096;DHT22;58753;49.440;11.126;2024-01-10T05:17:33;-6.99;72.80
71096;DHT22;58753;49.440;11.126;2024-01-10T05:19:58;-6.96;72.97
71096;DHT22;58753;49.440;11.126;2024-01-10T05:22:24;-6.96;72.82
71096;DHT22;58753;49.440;11.126;2024-01-10T05:24:50;-6.97;72.79
71096;DHT22;58753;49.440;11.126;2024-01-10T05:27:15;-7.01;72.88
71096;DHT22;58753;49.440;11.126;2024-01-10T05:29:41;-7.01;73.29
71096;DHT22;58753;49.440;11.126;2024-01-10T05:32:06;-7.03;72.99
71096;DHT22;58753;49.440;11.126;2024-01-10T05:34:32;-7.07;73.23
71096;DHT22;58753;49.440;11.126;2024-01-10T05:36:57;-7.01;73.94
71096;DHT22;58753;49.440;11.126;2024-01-10T05:39:23;-7.01;73.63
71096;DHT22;58753;49.440;11.126;2024-01-10T05:41:48;-7.04;73.61
71096;DHT22;58753;49.440;11.126;2024-01-10T05:44:13;-7.09;73.55
71096;DHT22;58753;49.440;11.126;2024-01-10T05:46:40;-7.09;73.71
71096;DHT22;58753;49.440;11.126;2024-01-10T05:49:06;-7.11;73.98
71096;DHT22;58753;49.440;11.126;2024-01-10T05:51:32;-7.11;73.90
71096;DHT22;58753;49.440;11.126;2024-01-10T05:53:58;-7.20;73.74
71096;DHT22;58753;49.440;11.126;2024-01-10T05:56:23;-7.24;73.88
71096;DHT22;58753;49.440;11.126;2024-01-10T05:58:48;-7.30;73.99
71096;DHT22;58753;49.440;11.126;2024-01-10T06:01:16;-7.33;74.04
71096;DHT22;58753;49.440;11.126;2024-01-10T06:03:42;-7.30;74.50
71096;DHT22;58753;49.440;11.126;2024-01-10T06:06:07;-7.31;74.45
71096;DHT22;58753;49.440;11.126;2024-01-10T06:08:33;-7.31;74.49
71096;DHT22;58753;49.440;11.126;2024-01-10T06:10:58;-7.26;74.83
71096;DHT22;58753;49.440;11.126;2024-01-10T06:13:24;-7.27;74.63
71096;DHT22;58753;49.440;11.126;2024-01-10T06:15:49;-7.31;74.42
71096;DHT22;58753;49.440;11.126;2024-01-10T06:18:15;-7.28;75.05
71096;DHT22;58753;49.440;11.126;2024-01-10T06:20:41;-7.24;75.31
71096;DHT22;58753;49.440;11.126;2024-01-10T06:23:06;-7.24;74.79
71096;DHT22;58753;49.440;11.126;2024-01-10T06:25:32;-7.31;74.70
71096;DHT22;58753;49.440;11.126;2024-01-10T06:27:57;-7.34;74.92
71096;DHT22;58753;49.440;11.126;2024-01-10T06:30:23;-7.28;75.46
71096;DHT22;58753;49.440;11.126;2024-01-10T06:32:48;-7.26;75.43
71096;DHT22;58753;49.440;11.126;2024-01-10T06:35:13;-7.31;75.15
71096;DHT22;58753;49.440;11.126;2024-01-10T06:37:40;-7.31;75.46
71096;DHT22;58753;49.440;11.126;2024-01-10T06:40:06;-7.28;75.80
71096;DHT22;58753;49.440;11.126;2024-01-10T06:42:32;-7.27;75.53
71096;DHT22;58753;49.440;11.126;2024-01-10T06:44:58;-7.27;75.65
71096;DHT22;58753;49.440;11.126;2024-01-10T06:47:23;-7.23;76.01
71096;DHT22;58753;49.440;11.126;2024-01-10T06:49:49;-7.24;75.94
71096;DHT22;58753;49.440;11.126;2024-01-10T06:52:14;-7.23;76.13
71096;DHT22;58753;49.440;11.126;2024-01-10T06:54:40;-7.27;75.80
71096;DHT22;58753;49.440;11.126;2024-01-10T06:57:05;-7.30;75.89
71096;DHT22;58753;49.440;11.126;2024-01-10T06:59:30;-7.28;76.41
71096;DHT22;58753;49.440;11.126;2024-01-10T07:01:56;-7.27;76.61
71096;DHT22;58753;49.440;11.126;2024-01-10T07:04:24;-7.24;76.76
71096;DHT22;58753;49.440;11.126;2024-01-10T07:06:50;-7.30;76.67
71096;DHT22;58753;49.440;11.126;2024-01-10T07:09:15;-7.28;76.95
71096;DHT22;58753;49.440;11.126;2024-01-10T07:11:48;-7.28;76.99
71096;DHT22;58753;49.440;11.126;2024-01-10T07:14:14;-7.35;76.81
71096;DHT22;58753;49.440;11.126;2024-01-10T07:16:40;-7.37;77.34
71096;DHT22;58753;49.440;11.126;2024-01-10T07:19:11;-7.40;77.17
71096;DHT22;58753;49.440;11.126;2024-01-10T07:21:42;-7.41;77.39
71096;DHT22;58753;49.440;11.126;2024-01-10T07:24:07;-7.38;77.74
71096;DHT22;58753;49.440;11.126;2024-01-10T07:26:37;-7.44;77.64
71096;DHT22;58753;49.440;11.126;2024-01-10T07:29:03;-7.47;77.60
71096;DHT22;58753;49.440;11.126;2024-01-10T07:31:29;-7.50;77.67
71096;DHT22;58753;49.440;11.126;2024-01-10T07:33:57;-7.51;77.64
71096;DHT22;58753;49.440;11.126;2024-01-10T07:36:24;-7.51;78.06
71096;DHT22;58753;49.440;11.126;2024-01-10T07:38:52;-7.47;78.30
71096;DHT22;58753;49.440;11.126;2024-01-10T07:41:17;-7.44;78.16
71096;DHT22;58753;49.440;11.126;2024-01-10T07:43:42;-7.41;78.35
71096;DHT22;58753;49.440;11.126;2024-01-10T07:46:09;-7.37;78.64
71096;DHT22;58753;49.440;11.126;2024-01-10T07:48:34;-7.27;78.79
71096;DHT22;58753;49.440;11.126;2024-01-10T07:51:01;-7.21;78.82
71096;DHT22;58753;49.440;11.126;2024-01-10T07:53:26;-7.16;79.02
71096;DHT22;58753;49.440;11.126;2024-01-10T07:55:52;-7.14;78.61
71096;DHT22;58753;49.440;11.126;2024-01-10T07:58:17;-7.10;78.92
71096;DHT22;58753;49.440;11.126;2024-01-10T08:00:43;-7.06;78.99
71096;DHT22;58753;49.440;11.126;2024-01-10T08:03:08;-7.07;78.70
71096;DHT22;58753;49.440;11.126;2024-01-10T08:05:35;-7.09;78.67
71096;DHT22;58753;49.440;11.126;2024-01-10T08:08:00;-7.06;78.91
71096;DHT22;58753;49.440;11.126;2024-01-10T08:10:26;-7.03;78.93
71096;DHT22;58753;49.440;11.126;2024-01-10T08:12:52;-6.99;79.13
71096;DHT22;58753;49.440;11.126;2024-01-10T08:15:18;-6.97;78.99
71096;DHT22;58753;49.440;11.126;2024-01-10T08:17:45;-6.90;79.21
71096;DHT22;58753;49.440;11.126;2024-01-10T08:20:10;-6.83;79.28
71096;DHT22;58753;49.440;11.126;2024-01-10T08:22:36;-6.72;79.34
71096;DHT22;58753;49.440;11.126;2024-01-10T08:25:01;-6.69;79.15
71096;DHT22;58753;49.440;11.126;2024-01-10T08:27:28;-6.62;79.16
71096;DHT22;58753;49.440;11.126;2024-01-10T08:29:53;-6.56;79.08
71096;DHT22;58753;49.440;11.126;2024-01-10T08:32:18;-6.49;79.07
71096;DHT22;58753;49.440;11.126;2024-01-10T08:34:47;-6.46;78.96
71096;DHT22;58753;49.440;11.126;2024-01-10T08:37:12;-6.39;79.03
71096;DHT22;58753;49.440;11.126;2024-01-10T08:39:38;-6.32;79.12
71096;DHT22;58753;49.440;11.126;2024-01-10T08:42:04;-6.27;79.00
71096;DHT22;58753;49.440;11.126;2024-01-10T08:44:29;-6.21;78.85
71096;DHT22;58753;49.440;11.126;2024-01-10T08:46:54;-6.15;78.69
71096;DHT22;58753;49.440;11.126;2024-01-10T08:49:20;-6.11;78.66
71096;DHT22;58753;49.440;11.126;2024-01-10T08:51:45;-6.05;78.49
71096;DHT22;58753;49.440;11.126;2024-01-10T08:54:12;-6.00;78.32
71096;DHT22;58753;49.440;11.126;2024-01-10T08:56:44;-5.94;78.28
71096;DHT22;58753;49.440;11.126;2024-01-10T08:59:13;-5.86;78.13
71096;DHT22;58753;49.440;11.126;2024-01-10T09:01:39;-5.82;77.92
71096;DHT22;58753;49.440;11.126;2024-01-10T09:04:05;-5.76;77.71
71096;DHT22;58753;49.440;11.126;2024-01-10T09:06:32;-5.69;77.50
71096;DHT22;58753;49.440;11.126;2024-01-10T09:08:57;-5.53;77.10
71096;DHT22;58753;49.440;11.126;2024-01-10T09:11:23;-5.43;76.90
71096;DHT22;58753;49.440;11.126;2024-01-10T09:13:50;-5.39;76.45
71096;DHT22;58753;49.440;11.126;2024-01-10T09:16:16;-5.31;76.13
71096;DHT22;58753;49.440;11.126;2024-01-10T09:18:44;-5.23;75.89
71096;DHT22;58753;49.440;11.126;2024-01-10T09:21:09;-5.18;75.79
71096;DHT22;58753;49.440;11.126;2024-01-10T09:23:34;-5.07;75.41
71096;DHT22;58753;49.440;11.126;2024-01-10T09:26:00;-4.97;74.88
71096;DHT22;58753;49.440;11.126;2024-01-10T09:28:25;-4.87;74.70
71096;DHT22;58753;49.440;11.126;2024-01-10T09:30:51;-4.80;74.42
71096;DHT22;58753;49.440;11.126;2024-01-10T09:33:17;-4.73;73.89
71096;DHT22;58753;49.440;11.126;2024-01-10T09:35:43;-4.60;73.49
71096;DHT22;58753;49.440;11.126;2024-01-10T09:38:08;-4.53;73.32
71096;DHT22;58753;49.440;11.126;2024-01-10T09:40:34;-4.46;73.08
71096;DHT22;58753;49.440;11.126;2024-01-10T09:42:59;-4.40;72.74
71096;DHT22;58753;49.440;11.126;2024-01-10T09:45:26;-4.30;72.59
71096;DHT22;58753;49.440;11.126;2024-01-10T09:47:56;-4.26;72.38
71096;DHT22;58753;49.440;11.126;2024-01-10T09:50:23;-4.22;72.14
71096;DHT22;58753;49.440;11.126;2024-01-10T09:52:51;-4.14;71.90
71096;DHT22;58753;49.440;11.126;2024-01-10T09:55:20;-4.07;71.82
71096;DHT22;58753;49.440;11.126;2024-01-10T09:57:46;-3.98;71.60
71096;DHT22;58753;49.440;11.126;2024-01-10T10:00:14;-3.85;71.15
71096;DHT22;58753;49.440;11.126;2024-01-10T10:02:41;-3.70;70.95
71096;DHT22;58753;49.440;11.126;2024-01-10T10:05:13;-3.58;70.59
71096;DHT22;58753;49.440;11.126;2024-01-10T10:07:48;-3.52;70.27
71096;DHT22;58753;49.440;11.126;2024-01-10T10:10:14;-3.43;70.12
71096;DHT22;58753;49.440;11.126;2024-01-10T10:12:48;-3.31;69.87
71096;DHT22;58753;49.440;11.126;2024-01-10T10:15:19;-3.26;69.43
71096;DHT22;58753;49.440;11.126;2024-01-10T10:17:47;-3.14;69.25
71096;DHT22;58753;49.440;11.126;2024-01-10T10:20:24;-3.01;68.78
71096;DHT22;58753;49.440;11.126;2024-01-10T10:25:26;-2.82;68.16
71096;DHT22;58753;49.440;11.126;2024-01-10T10:27:51;-2.79;68.00
71096;DHT22;58753;49.440;11.126;2024-01-10T10:30:20;-2.69;67.91
71096;DHT22;58753;49.440;11.126;2024-01-10T10:32:45;-2.66;67.77
71096;DHT22;58753;49.440;11.126;2024-01-10T10:35:10;-2.59;67.55
71096;DHT22;58753;49.440;11.126;2024-01-10T10:37:36;-2.55;67.41
71096;DHT22;58753;49.440;11.126;2024-01-10T10:40:02;-2.48;67.32
71096;DHT22;58753;49.440;11.126;2024-01-10T10:42:28;-2.46;67.07
71096;DHT22;58753;49.440;11.126;2024-01-10T10:44:57;-2.35;67.11
71096;DHT22;58753;49.440;11.126;2024-01-10T10:47:27;-2.24;66.93
71096;DHT22;58753;49.440;11.126;2024-01-10T10:49:54;-2.11;66.29
71096;DHT22;58753;49.440;11.126;2024-01-10T10:52:21;-1.98;66.02
71096;DHT22;58753;49.440;11.126;2024-01-10T10:54:48;-1.84;65.45
71096;DHT22;58753;49.440;11.126;2024-01-10T10:57:16;-1.74;65.39
71096;DHT22;58753;49.440;11.126;2024-01-10T10:59:43;-1.64;65.27
71096;DHT22;58753;49.440;11.126;2024-01-10T11:02:10;-1.59;65.00
71096;DHT22;58753;49.440;11.126;2024-01-10T11:04:36;-1.53;64.87
71096;DHT22;58753;49.440;11.126;2024-01-10T11:07:04;-1.45;64.51
71096;DHT22;58753;49.440;11.126;2024-01-10T11:09:31;-1.42;64.32
71096;DHT22;58753;49.440;11.126;2024-01-10T11:23:33;-0.95;63.83
71096;DHT22;58753;49.440;11.126;2024-01-10T11:26:02;0.01;63.36
71096;DHT22;58753;49.440;11.126;2024-01-10T11:28:30;1.57;62.83
71096;DHT22;58753;49.440;11.126;2024-01-10T11:30:56;2.93;61.50
71096;DHT22;58753;49.440;11.126;2024-01-10T11:33:30;3.80;55.86
71096;DHT22;58753;49.440;11.126;2024-01-10T11:38:49;4.95;54.30
71096;DHT22;58753;49.440;11.126;2024-01-10T11:41:30;5.39;53.25
71096;DHT22;58753;49.440;11.126;2024-01-10T11:46:47;6.21;50.74
71096;DHT22;58753;49.440;11.126;2024-01-10T11:49:14;6.59;47.26
71096;DHT22;58753;49.440;11.126;2024-01-10T11:51:52;6.86;47.11
71096;DHT22;58753;49.440;11.126;2024-01-10T11:57:21;6.86;45.53
71096;DHT22;58753;49.440;11.126;2024-01-10T11:59:53;6.61;43.90
71096;DHT22;58753;49.440;11.126;2024-01-10T12:02:20;6.56;43.62
71096;DHT22;58753;49.440;11.126;2024-01-10T12:04:46;6.41;43.40
71096;DHT22;58753;49.440;11.126;2024-01-10T12:07:12;6.35;42.06
71096;DHT22;58753;49.440;11.126;2024-01-10T12:09:38;6.18;41.74
71096;DHT22;58753;49.440;11.126;2024-01-10T12:12:04;6.39;41.38
71096;DHT22;58753;49.440;11.126;2024-01-10T12:14:30;6.72;42.42
71096;DHT22;58753;49.440;11.126;2024-01-10T12:17:00;6.95;39.99
71096;DHT22;58753;49.440;11.126;2024-01-10T12:19:25;6.56;39.80
71096;DHT22;58753;49.440;11.126;2024-01-10T12:21:51;6.45;40.42
71096;DHT22;58753;49.440;11.126;2024-01-10T12:24:18;5.98;40.66
71096;DHT22;58753;49.440;11.126;2024-01-10T12:26:47;5.18;41.31
71096;DHT22;58753;49.440;11.126;2024-01-10T12:29:13;5.32;42.34
71096;DHT22;58753;49.440;11.126;2024-01-10T12:31:42;5.94;41.32
71096;DHT22;58753;49.440;11.126;2024-01-10T12:34:09;6.00;40.28
71096;DHT22;58753;49.440;11.126;2024-01-10T12:36:35;5.66;41.04
71096;DHT22;58753;49.440;11.126;2024-01-10T12:39:01;5.44;41.72
71096;DHT22;58753;49.440;11.126;2024-01-10T12:41:26;5.67;42.04
71096;DHT22;58753;49.440;11.126;2024-01-10T12:43:52;6.07;42.19
71096;DHT22;58753;49.440;11.126;2024-01-10T12:46:18;6.48;41.16
71096;DHT22;58753;49.440;11.126;2024-01-10T12:48:43;6.90;40.79
71096;DHT22;58753;49.440;11.126;2024-01-10T12:51:10;7.14;40.29
71096;DHT22;58753;49.440;11.126;2024-01-10T12:53:38;7.61;40.45
71096;DHT22;58753;49.440;11.126;2024-01-10T12:56:04;7.88;39.38
71096;DHT22;58753;49.440;11.126;2024-01-10T12:58:31;8.02;38.86
71096;DHT22;58753;49.440;11.126;2024-01-10T13:00:56;7.86;38.11
71096;DHT22;58753;49.440;11.126;2024-01-10T13:03:22;7.38;37.93
71096;DHT22;58753;49.440;11.126;2024-01-10T13:05:48;6.71;38.16
71096;DHT22;58753;49.440;11.126;2024-01-10T13:08:14;6.02;38.05
71096;DHT22;58753;49.440;11.126;2024-01-10T13:10:41;5.29;39.29
71096;DHT22;58753;49.440;11.126;2024-01-10T13:13:06;4.60;39.73
71096;DHT22;58753;49.440;11.126;2024-01-10T13:15:32;4.23;40.76
71096;DHT22;58753;49.440;11.126;2024-01-10T13:17:57;3.90;41.35
71096;DHT22;58753;49.440;11.126;2024-01-10T13:20:24;3.59;41.89
71096;DHT22;58753;49.440;11.126;2024-01-10T13:22:50;3.32;42.43
71096;DHT22;58753;49.440;11.126;2024-01-10T13:25:16;3.29;43.04
71096;DHT22;58753;49.440;11.126;2024-01-10T13:27:41;3.54;43.43
71096;DHT22;58753;49.440;11.126;2024-01-10T13:30:07;3.48;43.14
71096;DHT22;58753;49.440;11.126;2024-01-10T13:32:37;3.27;43.58
71096;DHT22;58753;49.440;11.126;2024-01-10T13:35:03;3.14;44.01
71096;DHT22;58753;49.440;11.126;2024-01-10T13:37:29;2.84;43.98
71096;DHT22;58753;49.440;11.126;2024-01-10T13:39:54;2.42;44.52
71096;DHT22;58753;49.440;11.126;2024-01-10T13:42:20;2.19;45.25
71096;DHT22;58753;49.440;11.126;2024-01-10T13:44:45;1.98;45.83
71096;DHT22;58753;49.440;11.126;2024-01-10T13:47:11;1.85;46.28
71096;DHT22;58753;49.440;11.126;2024-01-10T13:49:37;1.69;46.91
71096;DHT22;58753;49.440;11.126;2024-01-10T13:52:05;1.57;47.26
71096;DHT22;58753;49.440;11.126;2024-01-10T13:54:31;1.48;48.00
71096;DHT22;58753;49.440;11.126;2024-01-10T13:56:56;1.33;48.14
71096;DHT22;58753;49.440;11.126;2024-01-10T13:59:22;1.17;48.51
71096;DHT22;58753;49.440;11.126;2024-01-10T14:01:47;1.03;49.01
71096;DHT22;58753;49.440;11.126;2024-01-10T14:04:13;0.90;49.98
71096;DHT22;58753;49.440;11.126;2024-01-10T14:06:38;0.83;50.13
71096;DHT22;58753;49.440;11.126;2024-01-10T14:09:04;0.77;50.48
71096;DHT22;58753;49.440;11.126;2024-01-10T14:11:29;0.69;50.70
71096;DHT22;58753;49.440;11.126;2024-01-10T14:13:55;0.58;51.02
71096;DHT22;58753;49.440;11.126;2024-01-10T14:16:20;0.52;51.54
71096;DHT22;58753;49.440;11.126;2024-01-10T14:18:45;0.48;51.78
71096;DHT22;58753;49.440;11.126;2024-01-10T14:21:12;0.41;52.03
71096;DHT22;58753;49.440;11.126;2024-01-10T14:23:38;0.31;52.24
71096;DHT22;58753;49.440;11.126;2024-01-10T14:26:03;0.24;52.82
71096;DHT22;58753;49.440;11.126;2024-01-10T14:28:31;0.21;52.97
71096;DHT22;58753;49.440;11.126;2024-01-10T14:30:58;0.15;53.25
71096;DHT22;58753;49.440;11.126;2024-01-10T14:33:25;0.10;53.50
71096;DHT22;58753;49.440;11.126;2024-01-10T14:35:51;0.04;53.77
71096;DHT22;58753;49.440;11.126;2024-01-10T14:38:16;0.00;53.92
71096;DHT22;58753;49.440;11.126;2024-01-10T14:40:41;-0.02;54.22
71096;DHT22;58753;49.440;11.126;2024-01-10T14:43:07;-0.05;54.42
71096;DHT22;58753;49.440;11.126;2024-01-10T14:45:32;-0.09;54.75
71096;DHT22;58753;49.440;11.126;2024-01-10T14:47:58;-0.13;54.98
71096;DHT22;58753;49.440;11.126;2024-01-10T14:50:23;-0.13;55.10
71096;DHT22;58753;49.440;11.126;2024-01-10T14:52:49;-0.21;55.26
71096;DHT22;58753;49.440;11.126;2024-01-10T14:55:15;-0.29;55.37
71096;DHT22;58753;49.440;11.126;2024-01-10T14:57:41;-0.36;55.51
71096;DHT22;58753;49.440;11.126;2024-01-10T15:00:07;-0.41;55.82
71096;DHT22;58753;49.440;11.126;2024-01-10T15:02:32;-0.43;56.51
71096;DHT22;58753;49.440;11.126;2024-01-10T15:04:58;-0.45;56.57
71096;DHT22;58753;49.440;11.126;2024-01-10T15:07:24;-0.51;56.57
71096;DHT22;58753;49.440;11.126;2024-01-10T15:09:49;-0.54;56.73
71096;DHT22;58753;49.440;11.126;2024-01-10T15:12:14;-0.61;57.00
71096;DHT22;58753;49.440;11.126;2024-01-10T15:14:40;-0.67;57.09
71096;DHT22;58753;49.440;11.126;2024-01-10T15:17:06;-0.73;57.36
71096;DHT22;58753;49.440;11.126;2024-01-10T15:19:35;-0.83;57.46
71096;DHT22;58753;49.440;11.126;2024-01-10T15:22:01;-0.85;57.77
71096;DHT22;58753;49.440;11.126;2024-01-10T15:24:28;-0.91;57.88
71096;DHT22;58753;49.440;11.126;2024-01-10T15:26:54;-0.95;58.01
71096;DHT22;58753;49.440;11.126;2024-01-10T15:29:21;-1.04;58.20
71096;DHT22;58753;49.440;11.126;2024-01-10T15:31:46;-1.09;58.39
71096;DHT22;58753;49.440;11.126;2024-01-10T15:34:12;-1.20;58.64
71096;DHT22;58753;49.440;11.126;2024-01-10T15:36:42;-1.25;58.92